Map

Track Data

SID SEASON NUMBER BASIN SUBBASIN NAME ISO_TIME NATURE LAT LON WMO_WIND WMO_PRES WMO_AGENCY TRACK_TYPE DIST2LAND LANDFALL IFLAG USA_AGENCY USA_ATCF_ID USA_LAT USA_LON USA_RECORD USA_STATUS USA_WIND USA_PRES USA_SSHS USA_R34_NE USA_R34_SE USA_R34_SW USA_R34_NW USA_R50_NE USA_R50_SE USA_R50_SW USA_R50_NW USA_R64_NE USA_R64_SE USA_R64_SW USA_R64_NW USA_POCI USA_ROCI USA_RMW USA_EYE TOKYO_LAT TOKYO_LON TOKYO_GRADE TOKYO_WIND TOKYO_PRES TOKYO_R50_DIR TOKYO_R50_LONG TOKYO_R50_SHORT TOKYO_R30_DIR TOKYO_R30_LONG TOKYO_R30_SHORT TOKYO_LAND CMA_LAT CMA_LON CMA_CAT CMA_WIND CMA_PRES HKO_LAT HKO_LON HKO_CAT HKO_WIND HKO_PRES NEWDELHI_LAT NEWDELHI_LON NEWDELHI_GRADE NEWDELHI_WIND NEWDELHI_PRES NEWDELHI_CI NEWDELHI_DP NEWDELHI_POCI REUNION_LAT REUNION_LON REUNION_TYPE REUNION_WIND REUNION_PRES REUNION_TNUM REUNION_CI REUNION_RMW REUNION_R34_NE REUNION_R34_SE REUNION_R34_SW REUNION_R34_NW REUNION_R50_NE REUNION_R50_SE REUNION_R50_SW REUNION_R50_NW REUNION_R64_NE REUNION_R64_SE REUNION_R64_SW REUNION_R64_NW BOM_LAT BOM_LON BOM_TYPE BOM_WIND BOM_PRES BOM_TNUM BOM_CI BOM_RMW BOM_R34_NE BOM_R34_SE BOM_R34_SW BOM_R34_NW BOM_R50_NE BOM_R50_SE BOM_R50_SW BOM_R50_NW BOM_R64_NE BOM_R64_SE BOM_R64_SW BOM_R64_NW BOM_ROCI BOM_POCI BOM_EYE BOM_POS_METHOD BOM_PRES_METHOD NADI_LAT NADI_LON NADI_CAT NADI_WIND NADI_PRES WELLINGTON_LAT WELLINGTON_LON WELLINGTON_WIND WELLINGTON_PRES DS824_LAT DS824_LON DS824_STAGE DS824_WIND DS824_PRES TD9636_LAT TD9636_LON TD9636_STAGE TD9636_WIND TD9636_PRES TD9635_LAT TD9635_LON TD9635_WIND TD9635_PRES TD9635_ROCI NEUMANN_LAT NEUMANN_LON NEUMANN_CLASS NEUMANN_WIND NEUMANN_PRES MLC_LAT MLC_LON MLC_CLASS MLC_WIND MLC_PRES USA_GUST BOM_GUST BOM_GUST_PER REUNION_GUST REUNION_GUST_PER USA_SEAHGT USA_SEARAD_NE USA_SEARAD_SE USA_SEARAD_SW USA_SEARAD_NW STORM_SPEED STORM_DIR
1899068S15062 1899 10 SI MM NOT_NAMED 1899-03-09 00:00:00 TS -14.8000 62.1000 main 754 732 _________O____ -1 -14.8000 62.1000 TC 5 248
1899068S15062 1899 10 SI MM NOT_NAMED 1899-03-09 03:00:00 TS -14.9001 61.8376 main 726 704 _________P____ -1 -14.9001 61.8376 TC 5 248
1899068S15062 1899 10 SI MM NOT_NAMED 1899-03-09 06:00:00 TS -15.0000 61.6000 main 704 683 _________O____ -1 -15.0000 61.6000 TC 5 245
1899068S15062 1899 10 SI MM NOT_NAMED 1899-03-09 09:00:00 TS -15.0999 61.4000 main 683 661 _________P____ -1 -15.0999 61.4000 TC 4 243
1899068S15062 1899 10 SI MM NOT_NAMED 1899-03-09 12:00:00 TS -15.2000 61.2000 main 661 640 _________O____ -1 -15.2000 61.2000 TC 5 245
1899068S15062 1899 10 SI MM NOT_NAMED 1899-03-09 15:00:00 TS -15.3000 60.9500 main 640 614 _________P____ -1 -15.3000 60.9500 TC 5 248
1899068S15062 1899 10 SI MM NOT_NAMED 1899-03-09 18:00:00 TS -15.4000 60.7000 main 614 593 _________O____ -1 -15.4000 60.7000 TC 5 246
1899068S15062 1899 10 SI MM NOT_NAMED 1899-03-09 21:00:00 TS -15.5000 60.4850 main 593 573 _________P____ -1 -15.5000 60.4850 TC 4 243
1899068S15062 1899 10 SI MM NOT_NAMED 1899-03-10 00:00:00 TS -15.6000 60.3000 main 573 558 _________O____ -1 -15.6000 60.3000 TC 4 239
1899068S15062 1899 10 SI MM NOT_NAMED 1899-03-10 03:00:00 TS -15.7000 60.1425 main 553 539 _________P____ -1 -15.7000 60.1425 TC 4 235
1899068S15062 1899 10 SI MM NOT_NAMED 1899-03-10 06:00:00 TS -15.8000 60.0000 main 539 524 _________O____ -1 -15.8000 60.0000 TC 4 234
1899068S15062 1899 10 SI MM NOT_NAMED 1899-03-10 09:00:00 TS -15.9075 59.8500 main 524 505 _________P____ -1 -15.9075 59.8500 TC 4 235
1899068S15062 1899 10 SI MM NOT_NAMED 1899-03-10 12:00:00 TS -16.0000 59.7000 main 505 500 _________O____ -1 -16.0000 59.7000 TC 3 244
1899068S15062 1899 10 SI MM NOT_NAMED 1899-03-10 15:00:00 TS -16.0500 59.5425 main 496 482 _________P____ -1 -16.0500 59.5425 TC 3 251
1899068S15062 1899 10 SI MM NOT_NAMED 1899-03-10 18:00:00 TS -16.1000 59.4000 main 482 467 _________O____ -1 -16.1000 59.4000 TC 3 239
1899068S15062 1899 10 SI MM NOT_NAMED 1899-03-10 21:00:00 TS -16.1849 59.3149 main 467 453 _________P____ -1 -16.1849 59.3149 TC 3 224
1899068S15062 1899 10 SI MM NOT_NAMED 1899-03-11 00:00:00 TS -16.3000 59.2000 main 453 436 _________O____ -1 -16.3000 59.2000 TC 4 232
1899068S15062 1899 10 SI MM NOT_NAMED 1899-03-11 03:00:00 TS -16.4425 58.9725 main 436 405 _________P____ -1 -16.4425 58.9725 TC 6 238
1899068S15062 1899 10 SI MM NOT_NAMED 1899-03-11 06:00:00 TS -16.6000 58.7000 main 405 389 _________O____ -1 -16.6000 58.7000 TC 6 239
1899068S15062 1899 10 SI MM NOT_NAMED 1899-03-11 09:00:00 TS -16.7425 58.4499 main 387 361 _________P____ -1 -16.7425 58.4499 TC 6 238
1899068S15062 1899 10 SI MM NOT_NAMED 1899-03-11 12:00:00 TS -16.9000 58.2000 main 361 337 _________O____ -1 -16.9000 58.2000 TC 6 234
1899068S15062 1899 10 SI MM NOT_NAMED 1899-03-11 15:00:00 TS -17.0925 57.9500 main 336 313 _________P____ -1 -17.0925 57.9500 TC 6 230
1899068S15062 1899 10 SI MM NOT_NAMED 1899-03-11 18:00:00 TS -17.3000 57.7000 main 313 290 _________O____ -1 -17.3000 57.7000 TC 6 230
1899068S15062 1899 10 SI MM NOT_NAMED 1899-03-11 21:00:00 TS -17.5000 57.4499 main 291 269 _________P____ -1 -17.5000 57.4499 TC 6 230
1899068S15062 1899 10 SI MM NOT_NAMED 1899-03-12 00:00:00 TS -17.7000 57.2000 main 270 251 _________O____ -1 -17.7000 57.2000 TC 6 231
1899068S15062 1899 10 SI MM NOT_NAMED 1899-03-12 03:00:00 TS -17.8925 56.9424 main 254 235 _________P____ -1 -17.8925 56.9424 TC 6 230
1899068S15062 1899 10 SI MM NOT_NAMED 1899-03-12 06:00:00 TS -18.1000 56.7000 main 239 222 _________O____ -1 -18.1000 56.7000 TC 6 224
1899068S15062 1899 10 SI MM NOT_NAMED 1899-03-12 09:00:00 TS -18.3350 56.4924 main 227 209 _________P____ -1 -18.3350 56.4924 TC 6 217
1899068S15062 1899 10 SI MM NOT_NAMED 1899-03-12 12:00:00 TS -18.6000 56.3000 main 209 198 _________O____ -1 -18.6000 56.3000 TC 7 214
1899068S15062 1899 10 SI MM NOT_NAMED 1899-03-12 15:00:00 TS -18.8925 56.0925 main 198 192 _________P____ -1 -18.8925 56.0925 TC 7 212
1899068S15062 1899 10 SI MM NOT_NAMED 1899-03-12 18:00:00 TS -19.2000 55.9000 main 195 168 _________O____ -1 -19.2000 55.9000 TC 7 209
1899068S15062 1899 10 SI MM NOT_NAMED 1899-03-12 21:00:00 TS -19.4850 55.7424 main 167 134 _________P____ -1 -19.4850 55.7424 TC 7 205
1899068S15062 1899 10 SI MM NOT_NAMED 1899-03-13 00:00:00 TS -19.8000 55.6000 main 134 89 _________O____ -1 -19.8000 55.6000 TC 8 201
1899068S15062 1899 10 SI MM NOT_NAMED 1899-03-13 03:00:00 TS -20.1850 55.4500 main 89 44 _________P____ -1 -20.1850 55.4500 TC 9 199
1899068S15062 1899 10 SI MM NOT_NAMED 1899-03-13 06:00:00 TS -20.6000 55.3000 main 44 10 _________O____ -1 -20.6000 55.3000 TC 9 199
1899068S15062 1899 10 SI MM NOT_NAMED 1899-03-13 09:00:00 TS -21.0000 55.1425 main 15 10 _________P____ -1 -21.0000 55.1425 TC 9 199
1899068S15062 1899 10 SI MM NOT_NAMED 1899-03-13 12:00:00 TS -21.4000 55.0000 main 33 33 _________O____ -1 -21.4000 55.0000 TC 8 197
1899068S15062 1899 10 SI MM NOT_NAMED 1899-03-13 15:00:00 TS -21.8000 54.8849 main 69 69 _________P____ -1 -21.8000 54.8849 TC 8 193
1899068S15062 1899 10 SI MM NOT_NAMED 1899-03-13 18:00:00 TS -22.2000 54.8000 main 113 113 _________O____ -1 -22.2000 54.8000 TC 8 189
1899068S15062 1899 10 SI MM NOT_NAMED 1899-03-13 21:00:00 TS -22.5850 54.7498 main 157 157 _________P____ -1 -22.5850 54.7498 TC 8 186
1899068S15062 1899 10 SI MM NOT_NAMED 1899-03-14 00:00:00 TS -23.0000 54.7000 main 199 199 _________O____ -1 -23.0000 54.7000 TC 9 188
1899068S15062 1899 10 SI MM NOT_NAMED 1899-03-14 03:00:00 TS -23.4850 54.6001 main 256 256 _________P____ -1 -23.4850 54.6001 TC 10 190
1899068S15062 1899 10 SI MM NOT_NAMED 1899-03-14 06:00:00 TS -24.0000 54.5000 main 311 311 _________O____ -1 -24.0000 54.5000 TC 10 188
1899068S15062 1899 10 SI MM NOT_NAMED 1899-03-14 09:00:00 TS -24.5150 54.4424 main 367 367 _________P____ -1 -24.5150 54.4424 TC 10 185
1899068S15062 1899 10 SI MM NOT_NAMED 1899-03-14 12:00:00 TS -25.0000 54.4000 main 420 420 _________O____ -1 -25.0000 54.4000 TC 9 186
1899068S15062 1899 10 SI MM NOT_NAMED 1899-03-14 15:00:00 TS -25.4075 54.3425 main 466 466 _________P____ -1 -25.4075 54.3425 TC 8 186
1899068S15062 1899 10 SI MM NOT_NAMED 1899-03-14 18:00:00 TS -25.8000 54.3000 main 509 509 _________O____ -1 -25.8000 54.3000 TC 8 182
1899068S15062 1899 10 SI MM NOT_NAMED 1899-03-14 21:00:00 TS -26.2350 54.2899 main 552 552 _________P____ -1 -26.2350 54.2899 TC 9 0
1899068S15062 1899 10 SI MM NOT_NAMED 1899-03-15 00:00:00 TS -26.7000 54.3000 main 606 _________O____ -1 -26.7000 54.3000 TC 9 0

About IBTrACS Database

This database is a web-friendly format of International Best Track Archive for Climate Stewardship (IBTrACS), a global best track data archive curated by NOAA dating back to 1842.

Updated: 2021-12-01